sensor_id;sensor_type;location;lat;lon;timestamp;pressure;altitude;pressure_sealevel;temperature;humidity
56719;BME280;42597;40.636;0.278;2023-01-29T00:01:24;97718.97;;;6.98;49.42
56719;BME280;42597;40.636;0.278;2023-01-29T00:03:50;97705.03;;;6.64;52.44
56719;BME280;42597;40.636;0.278;2023-01-29T00:06:16;97716.84;;;6.86;49.92
56719;BME280;42597;40.636;0.278;2023-01-29T00:08:42;97717.91;;;6.54;51.91
56719;BME280;42597;40.636;0.278;2023-01-29T00:11:08;97685.00;;;8.25;51.57
56719;BME280;42597;40.636;0.278;2023-01-29T00:13:34;97716.13;;;6.72;52.59
56719;BME280;42597;40.636;0.278;2023-01-29T00:16:00;97698.09;;;7.91;56.70
56719;BME280;42597;40.636;0.278;2023-01-29T00:18:26;97709.00;;;7.78;52.07
56719;BME280;42597;40.636;0.278;2023-01-29T00:20:52;97707.81;;;6.82;49.30
56719;BME280;42597;40.636;0.278;2023-01-29T00:23:18;97695.63;;;8.30;52.51
56719;BME280;42597;40.636;0.278;2023-01-29T00:25:43;97719.53;;;6.05;49.72
56719;BME280;42597;40.636;0.278;2023-01-29T00:28:09;97711.56;;;6.72;50.61
56719;BME280;42597;40.636;0.278;2023-01-29T00:30:36;97697.63;;;7.89;57.76
56719;BME280;42597;40.636;0.278;2023-01-29T00:33:02;97707.63;;;7.01;50.39
56719;BME280;42597;40.636;0.278;2023-01-29T00:35:29;97721.00;;;6.11;50.82
56719;BME280;42597;40.636;0.278;2023-01-29T00:37:55;97714.50;;;6.39;54.87
56719;BME280;42597;40.636;0.278;2023-01-29T00:40:21;97703.38;;;6.77;57.59
56719;BME280;42597;40.636;0.278;2023-01-29T00:42:47;97717.88;;;5.81;52.30
56719;BME280;42597;40.636;0.278;2023-01-29T00:45:31;97715.03;;;6.14;53.33
56719;BME280;42597;40.636;0.278;2023-01-29T00:47:57;97716.25;;;6.89;50.51
56719;BME280;42597;40.636;0.278;2023-01-29T00:50:23;97726.66;;;6.23;50.89
56719;BME280;42597;40.636;0.278;2023-01-29T00:52:48;97702.75;;;8.34;58.33
56719;BME280;42597;40.636;0.278;2023-01-29T00:55:16;97703.03;;;7.98;57.93
56719;BME280;42597;40.636;0.278;2023-01-29T00:57:41;97729.59;;;6.35;55.09
56719;BME280;42597;40.636;0.278;2023-01-29T01:00:11;97723.56;;;7.68;52.45
56719;BME280;42597;40.636;0.278;2023-01-29T01:02:37;97720.41;;;7.83;57.40
56719;BME280;42597;40.636;0.278;2023-01-29T01:05:22;97719.69;;;6.22;51.79
56719;BME280;42597;40.636;0.278;2023-01-29T01:07:52;97708.75;;;7.08;53.07
56719;BME280;42597;40.636;0.278;2023-01-29T01:10:21;97730.91;;;5.60;50.70
56719;BME280;42597;40.636;0.278;2023-01-29T01:15:22;97724.69;;;7.05;58.25
56719;BME280;42597;40.636;0.278;2023-01-29T01:17:51;97730.06;;;7.36;56.41
56719;BME280;42597;40.636;0.278;2023-01-29T01:20:17;97719.97;;;7.99;56.02
56719;BME280;42597;40.636;0.278;2023-01-29T01:22:42;97724.31;;;8.43;55.57
56719;BME280;42597;40.636;0.278;2023-01-29T01:25:08;97745.22;;;6.33;51.49
56719;BME280;42597;40.636;0.278;2023-01-29T01:27:34;97736.31;;;7.54;58.45
56719;BME280;42597;40.636;0.278;2023-01-29T01:30:02;97734.88;;;8.05;53.36
56719;BME280;42597;40.636;0.278;2023-01-29T01:32:28;97745.19;;;5.97;51.39
56719;BME280;42597;40.636;0.278;2023-01-29T01:34:54;97742.38;;;7.28;54.17
56719;BME280;42597;40.636;0.278;2023-01-29T01:37:19;97742.28;;;7.51;56.30
56719;BME280;42597;40.636;0.278;2023-01-29T01:39:45;97749.03;;;7.00;51.09
56719;BME280;42597;40.636;0.278;2023-01-29T01:42:13;97757.44;;;6.39;57.13
56719;BME280;42597;40.636;0.278;2023-01-29T01:44:54;97750.22;;;6.71;54.16
56719;BME280;42597;40.636;0.278;2023-01-29T01:47:39;97753.09;;;5.33;52.98
56719;BME280;42597;40.636;0.278;2023-01-29T01:50:17;97762.13;;;6.79;58.87
56719;BME280;42597;40.636;0.278;2023-01-29T01:52:48;97755.22;;;7.09;52.79
56719;BME280;42597;40.636;0.278;2023-01-29T01:55:18;97778.44;;;5.68;49.61
56719;BME280;42597;40.636;0.278;2023-01-29T01:57:47;97759.56;;;7.27;54.99
56719;BME280;42597;40.636;0.278;2023-01-29T02:00:17;97765.53;;;7.47;55.00
56719;BME280;42597;40.636;0.278;2023-01-29T02:02:44;97776.91;;;7.43;54.11
56719;BME280;42597;40.636;0.278;2023-01-29T02:05:30;97771.16;;;8.25;54.25
56719;BME280;42597;40.636;0.278;2023-01-29T02:08:22;97776.28;;;7.47;51.66
56719;BME280;42597;40.636;0.278;2023-01-29T02:11:07;97769.97;;;7.51;56.57
56719;BME280;42597;40.636;0.278;2023-01-29T02:13:33;97760.25;;;7.02;56.08
56719;BME280;42597;40.636;0.278;2023-01-29T02:15:59;97760.50;;;8.11;57.32
56719;BME280;42597;40.636;0.278;2023-01-29T02:18:24;97761.09;;;7.90;55.43
56719;BME280;42597;40.636;0.278;2023-01-29T02:26:41;97762.72;;;7.21;54.41
56719;BME280;42597;40.636;0.278;2023-01-29T02:29:17;97764.63;;;7.20;53.90
56719;BME280;42597;40.636;0.278;2023-01-29T02:34:37;97755.72;;;7.90;52.17
56719;BME280;42597;40.636;0.278;2023-01-29T02:37:41;97763.66;;;6.93;52.74
56719;BME280;42597;40.636;0.278;2023-01-29T02:40:22;97771.78;;;6.57;51.49
56719;BME280;42597;40.636;0.278;2023-01-29T02:46:17;97772.22;;;6.73;51.38
56719;BME280;42597;40.636;0.278;2023-01-29T02:50:02;97762.34;;;5.55;53.51
56719;BME280;42597;40.636;0.278;2023-01-29T02:52:40;97768.38;;;6.29;53.45
56719;BME280;42597;40.636;0.278;2023-01-29T02:55:17;97761.97;;;6.03;54.34
56719;BME280;42597;40.636;0.278;2023-01-29T02:57:47;97764.16;;;7.58;53.81
56719;BME280;42597;40.636;0.278;2023-01-29T03:00:19;97765.03;;;6.10;58.29
56719;BME280;42597;40.636;0.278;2023-01-29T03:02:56;97758.72;;;7.40;51.17
56719;BME280;42597;40.636;0.278;2023-01-29T03:06:01;97745.00;;;7.59;60.75
56719;BME280;42597;40.636;0.278;2023-01-29T03:09:33;97751.72;;;7.39;50.22
56719;BME280;42597;40.636;0.278;2023-01-29T03:11:47;97755.00;;;6.52;63.05
56719;BME280;42597;40.636;0.278;2023-01-29T03:14:21;97763.25;;;5.64;52.13
56719;BME280;42597;40.636;0.278;2023-01-29T03:16:51;97764.03;;;6.06;53.78
56719;BME280;42597;40.636;0.278;2023-01-29T03:19:26;97755.13;;;6.91;53.60
56719;BME280;42597;40.636;0.278;2023-01-29T03:21:56;97755.59;;;6.49;53.68
56719;BME280;42597;40.636;0.278;2023-01-29T03:24:38;97755.59;;;6.49;51.70
56719;BME280;42597;40.636;0.278;2023-01-29T03:27:29;97754.31;;;5.82;54.13
56719;BME280;42597;40.636;0.278;2023-01-29T03:30:16;97760.03;;;8.09;60.33
56719;BME280;42597;40.636;0.278;2023-01-29T03:33:05;97765.09;;;6.55;53.43
56719;BME280;42597;40.636;0.278;2023-01-29T03:35:35;97751.25;;;5.61;55.23
56719;BME280;42597;40.636;0.278;2023-01-29T03:38:06;97758.28;;;7.16;57.83
56719;BME280;42597;40.636;0.278;2023-01-29T03:43:33;97740.09;;;7.53;55.48
56719;BME280;42597;40.636;0.278;2023-01-29T03:46:08;97756.94;;;7.05;50.05
56719;BME280;42597;40.636;0.278;2023-01-29T03:48:53;97757.44;;;6.26;58.44
56719;BME280;42597;40.636;0.278;2023-01-29T03:51:32;97743.84;;;7.43;57.68
56719;BME280;42597;40.636;0.278;2023-01-29T03:54:17;97733.00;;;8.66;59.15
56719;BME280;42597;40.636;0.278;2023-01-29T04:02:58;97742.69;;;8.50;51.83
56719;BME280;42597;40.636;0.278;2023-01-29T04:05:31;97747.88;;;6.33;50.80
56719;BME280;42597;40.636;0.278;2023-01-29T04:08:05;97742.03;;;6.99;52.60
56719;BME280;42597;40.636;0.278;2023-01-29T04:10:33;97754.94;;;6.65;54.10
56719;BME280;42597;40.636;0.278;2023-01-29T04:13:05;97740.28;;;7.56;58.03
56719;BME280;42597;40.636;0.278;2023-01-29T04:15:42;97741.75;;;8.46;52.44
56719;BME280;42597;40.636;0.278;2023-01-29T04:18:10;97756.22;;;5.68;58.22
56719;BME280;42597;40.636;0.278;2023-01-29T04:20:36;97750.16;;;7.07;54.90
56719;BME280;42597;40.636;0.278;2023-01-29T04:23:04;97742.06;;;7.30;49.53
56719;BME280;42597;40.636;0.278;2023-01-29T04:25:37;97742.16;;;7.16;56.82
56719;BME280;42597;40.636;0.278;2023-01-29T04:28:18;97738.28;;;7.00;54.00
56719;BME280;42597;40.636;0.278;2023-01-29T04:31:07;97732.69;;;7.58;57.55
56719;BME280;42597;40.636;0.278;2023-01-29T04:39:20;97732.97;;;8.31;54.08
56719;BME280;42597;40.636;0.278;2023-01-29T04:41:52;97727.44;;;8.28;58.11
56719;BME280;42597;40.636;0.278;2023-01-29T04:44:25;97735.88;;;8.44;59.88
56719;BME280;42597;40.636;0.278;2023-01-29T04:50:11;97747.88;;;8.20;54.43
56719;BME280;42597;40.636;0.278;2023-01-29T04:55:57;97754.59;;;7.83;52.16
56719;BME280;42597;40.636;0.278;2023-01-29T04:58:40;97749.66;;;8.42;61.99
56719;BME280;42597;40.636;0.278;2023-01-29T05:01:09;97765.50;;;6.62;50.50
56719;BME280;42597;40.636;0.278;2023-01-29T05:03:40;97743.75;;;8.31;56.65
56719;BME280;42597;40.636;0.278;2023-01-29T05:06:08;97742.19;;;8.82;58.53
56719;BME280;42597;40.636;0.278;2023-01-29T05:08:36;97751.78;;;9.18;55.52
56719;BME280;42597;40.636;0.278;2023-01-29T05:11:03;97744.44;;;8.46;57.13
56719;BME280;42597;40.636;0.278;2023-01-29T05:13:30;97750.53;;;8.03;51.20
56719;BME280;42597;40.636;0.278;2023-01-29T05:16:21;97749.94;;;8.93;50.99
56719;BME280;42597;40.636;0.278;2023-01-29T05:18:48;97740.69;;;9.11;57.84
56719;BME280;42597;40.636;0.278;2023-01-29T05:21:14;97761.19;;;8.25;50.73
56719;BME280;42597;40.636;0.278;2023-01-29T05:23:39;97761.47;;;8.15;58.07
56719;BME280;42597;40.636;0.278;2023-01-29T05:26:18;97749.13;;;8.31;53.41
56719;BME280;42597;40.636;0.278;2023-01-29T05:29:02;97745.50;;;8.79;59.35
56719;BME280;42597;40.636;0.278;2023-01-29T05:31:27;97749.47;;;8.56;56.74
56719;BME280;42597;40.636;0.278;2023-01-29T05:33:53;97753.41;;;9.02;56.53
56719;BME280;42597;40.636;0.278;2023-01-29T05:36:20;97740.63;;;8.81;51.83
56719;BME280;42597;40.636;0.278;2023-01-29T05:38:45;97752.31;;;7.67;56.66
56719;BME280;42597;40.636;0.278;2023-01-29T05:41:11;97758.94;;;6.54;50.86
56719;BME280;42597;40.636;0.278;2023-01-29T05:43:36;97762.44;;;6.77;55.42
56719;BME280;42597;40.636;0.278;2023-01-29T05:46:02;97762.47;;;7.39;50.53
56719;BME280;42597;40.636;0.278;2023-01-29T05:48:28;97757.53;;;8.21;54.53
56719;BME280;42597;40.636;0.278;2023-01-29T05:50:59;97771.75;;;7.56;53.55
56719;BME280;42597;40.636;0.278;2023-01-29T05:53:25;97764.28;;;7.93;58.04
56719;BME280;42597;40.636;0.278;2023-01-29T05:55:50;97773.25;;;8.54;55.34
56719;BME280;42597;40.636;0.278;2023-01-29T05:58:16;97762.34;;;9.40;55.42
56719;BME280;42597;40.636;0.278;2023-01-29T06:00:43;97774.03;;;8.72;53.96
56719;BME280;42597;40.636;0.278;2023-01-29T06:03:09;97785.56;;;8.20;47.83
56719;BME280;42597;40.636;0.278;2023-01-29T06:05:38;97773.56;;;9.51;53.92
56719;BME280;42597;40.636;0.278;2023-01-29T06:08:04;97785.47;;;7.85;57.30
56719;BME280;42597;40.636;0.278;2023-01-29T06:10:30;97782.38;;;8.35;57.51
56719;BME280;42597;40.636;0.278;2023-01-29T06:12:55;97787.03;;;8.87;58.37
56719;BME280;42597;40.636;0.278;2023-01-29T06:15:21;97801.28;;;7.16;53.91
56719;BME280;42597;40.636;0.278;2023-01-29T06:17:46;97806.72;;;6.30;52.09
56719;BME280;42597;40.636;0.278;2023-01-29T06:20:12;97824.22;;;5.72;50.26
56719;BME280;42597;40.636;0.278;2023-01-29T06:22:38;97818.31;;;6.89;49.78
56719;BME280;42597;40.636;0.278;2023-01-29T06:25:04;97824.81;;;8.21;55.87
56719;BME280;42597;40.636;0.278;2023-01-29T06:27:29;97825.53;;;7.96;51.41
56719;BME280;42597;40.636;0.278;2023-01-29T06:29:55;97823.56;;;6.72;59.38
56719;BME280;42597;40.636;0.278;2023-01-29T06:32:20;97815.88;;;8.52;60.06
56719;BME280;42597;40.636;0.278;2023-01-29T06:34:46;97829.97;;;6.48;49.26
56719;BME280;42597;40.636;0.278;2023-01-29T06:37:11;97840.75;;;7.38;60.97
56719;BME280;42597;40.636;0.278;2023-01-29T06:39:37;97832.88;;;7.41;49.83
56719;BME280;42597;40.636;0.278;2023-01-29T06:42:02;97836.22;;;7.16;57.72
56719;BME280;42597;40.636;0.278;2023-01-29T06:44:28;97833.88;;;7.85;56.24
56719;BME280;42597;40.636;0.278;2023-01-29T06:46:54;97847.78;;;5.42;49.87
56719;BME280;42597;40.636;0.278;2023-01-29T06:49:19;97822.88;;;8.70;58.81
56719;BME280;42597;40.636;0.278;2023-01-29T06:51:45;97845.97;;;7.65;49.67
56719;BME280;42597;40.636;0.278;2023-01-29T06:54:10;97854.53;;;6.41;50.03
56719;BME280;42597;40.636;0.278;2023-01-29T06:56:36;97824.59;;;8.83;59.99
56719;BME280;42597;40.636;0.278;2023-01-29T06:59:01;97860.13;;;6.31;49.86
56719;BME280;42597;40.636;0.278;2023-01-29T07:01:27;97852.50;;;6.61;56.66
56719;BME280;42597;40.636;0.278;2023-01-29T07:03:52;97852.16;;;8.46;56.77
56719;BME280;42597;40.636;0.278;2023-01-29T07:06:18;97855.97;;;8.62;55.30
56719;BME280;42597;40.636;0.278;2023-01-29T07:08:44;97850.22;;;8.37;55.28
56719;BME280;42597;40.636;0.278;2023-01-29T07:11:10;97841.97;;;9.47;56.06
56719;BME280;42597;40.636;0.278;2023-01-29T07:13:35;97860.59;;;9.13;54.19
56719;BME280;42597;40.636;0.278;2023-01-29T07:16:02;97845.69;;;8.90;57.79
56719;BME280;42597;40.636;0.278;2023-01-29T07:18:29;97855.84;;;8.27;48.13
56719;BME280;42597;40.636;0.278;2023-01-29T07:20:55;97870.91;;;8.85;55.42
56719;BME280;42597;40.636;0.278;2023-01-29T07:23:21;97869.47;;;6.84;48.97
56719;BME280;42597;40.636;0.278;2023-01-29T07:25:46;97870.75;;;7.54;54.88
56719;BME280;42597;40.636;0.278;2023-01-29T07:28:17;97883.66;;;7.21;48.58
56719;BME280;42597;40.636;0.278;2023-01-29T07:30:43;97888.16;;;5.00;51.61
56719;BME280;42597;40.636;0.278;2023-01-29T07:33:09;97877.13;;;6.13;57.00
56719;BME280;42597;40.636;0.278;2023-01-29T07:35:36;97878.78;;;7.76;60.61
56719;BME280;42597;40.636;0.278;2023-01-29T07:38:02;97892.38;;;7.80;58.96
56719;BME280;42597;40.636;0.278;2023-01-29T07:40:28;97875.00;;;9.26;57.62
56719;BME280;42597;40.636;0.278;2023-01-29T07:42:58;97902.41;;;7.57;50.99
56719;BME280;42597;40.636;0.278;2023-01-29T07:45:24;97900.03;;;7.86;57.82
56719;BME280;42597;40.636;0.278;2023-01-29T07:47:53;97901.91;;;8.57;56.84
56719;BME280;42597;40.636;0.278;2023-01-29T07:50:20;97887.38;;;8.27;56.02
56719;BME280;42597;40.636;0.278;2023-01-29T07:52:46;97906.16;;;7.78;56.94
56719;BME280;42597;40.636;0.278;2023-01-29T07:55:12;97903.06;;;8.25;54.72
56719;BME280;42597;40.636;0.278;2023-01-29T07:57:37;97907.50;;;7.36;49.93
56719;BME280;42597;40.636;0.278;2023-01-29T08:00:03;97922.78;;;6.63;49.56
56719;BME280;42597;40.636;0.278;2023-01-29T08:02:28;97910.19;;;6.50;50.05
56719;BME280;42597;40.636;0.278;2023-01-29T08:04:54;97909.75;;;6.70;55.34
56719;BME280;42597;40.636;0.278;2023-01-29T08:07:19;97916.31;;;7.14;52.47
56719;BME280;42597;40.636;0.278;2023-01-29T08:09:45;97929.19;;;6.39;51.03
56719;BME280;42597;40.636;0.278;2023-01-29T08:12:10;97941.00;;;7.16;56.29
56719;BME280;42597;40.636;0.278;2023-01-29T08:14:36;97931.78;;;6.45;49.71
56719;BME280;42597;40.636;0.278;2023-01-29T08:17:01;97937.75;;;7.05;52.01
56719;BME280;42597;40.636;0.278;2023-01-29T08:19:27;97943.56;;;7.43;50.49
56719;BME280;42597;40.636;0.278;2023-01-29T08:21:52;97942.78;;;7.21;54.78
56719;BME280;42597;40.636;0.278;2023-01-29T08:24:18;97938.69;;;7.46;58.77
56719;BME280;42597;40.636;0.278;2023-01-29T08:26:43;97957.19;;;6.88;51.78
56719;BME280;42597;40.636;0.278;2023-01-29T08:29:10;97955.22;;;7.53;56.60
56719;BME280;42597;40.636;0.278;2023-01-29T08:31:36;97961.41;;;7.17;55.54
56719;BME280;42597;40.636;0.278;2023-01-29T08:34:01;97964.88;;;7.76;52.83
56719;BME280;42597;40.636;0.278;2023-01-29T08:36:27;97967.41;;;7.36;52.80
56719;BME280;42597;40.636;0.278;2023-01-29T08:38:52;97956.78;;;7.54;54.03
56719;BME280;42597;40.636;0.278;2023-01-29T08:41:18;97969.09;;;7.69;51.76
56719;BME280;42597;40.636;0.278;2023-01-29T08:43:44;97967.78;;;7.43;55.25
56719;BME280;42597;40.636;0.278;2023-01-29T08:46:11;97979.16;;;7.04;54.80
56719;BME280;42597;40.636;0.278;2023-01-29T08:48:36;97987.63;;;6.42;49.28
56719;BME280;42597;40.636;0.278;2023-01-29T08:51:02;97992.16;;;7.47;56.81
56719;BME280;42597;40.636;0.278;2023-01-29T08:53:29;97988.22;;;6.95;55.71
56719;BME280;42597;40.636;0.278;2023-01-29T08:55:55;97991.44;;;7.33;53.88
56719;BME280;42597;40.636;0.278;2023-01-29T08:58:20;97989.22;;;7.35;54.59
56719;BME280;42597;40.636;0.278;2023-01-29T09:00:46;97975.59;;;7.31;52.50
56719;BME280;42597;40.636;0.278;2023-01-29T09:03:11;97989.66;;;7.28;52.23
56719;BME280;42597;40.636;0.278;2023-01-29T09:05:38;97981.41;;;7.11;51.11
56719;BME280;42597;40.636;0.278;2023-01-29T09:08:04;97992.81;;;6.66;50.96
56719;BME280;42597;40.636;0.278;2023-01-29T09:10:30;97996.75;;;7.10;52.25
56719;BME280;42597;40.636;0.278;2023-01-29T09:12:55;97986.53;;;6.85;55.14
56719;BME280;42597;40.636;0.278;2023-01-29T09:15:21;98003.72;;;6.42;52.35
56719;BME280;42597;40.636;0.278;2023-01-29T09:17:47;98005.22;;;7.04;54.10
56719;BME280;42597;40.636;0.278;2023-01-29T09:20:16;97999.84;;;8.61;54.87
56719;BME280;42597;40.636;0.278;2023-01-29T09:22:42;98000.72;;;8.48;50.79
56719;BME280;42597;40.636;0.278;2023-01-29T09:25:08;98019.31;;;7.23;51.00
56719;BME280;42597;40.636;0.278;2023-01-29T09:27:33;98019.66;;;6.66;55.91
56719;BME280;42597;40.636;0.278;2023-01-29T09:29:59;98027.81;;;7.75;51.32
56719;BME280;42597;40.636;0.278;2023-01-29T09:32:24;98028.81;;;6.93;51.42
56719;BME280;42597;40.636;0.278;2023-01-29T09:34:50;98028.19;;;7.60;51.94
56719;BME280;42597;40.636;0.278;2023-01-29T09:37:15;98036.19;;;6.87;50.56
56719;BME280;42597;40.636;0.278;2023-01-29T09:39:47;98035.75;;;7.22;52.09
56719;BME280;42597;40.636;0.278;2023-01-29T09:42:47;98035.75;;;7.58;48.31
56719;BME280;42597;40.636;0.278;2023-01-29T09:45:20;98042.03;;;8.74;55.18
56719;BME280;42597;40.636;0.278;2023-01-29T09:47:50;98039.78;;;8.68;53.86
56719;BME280;42597;40.636;0.278;2023-01-29T09:53:00;98054.88;;;7.93;50.26
56719;BME280;42597;40.636;0.278;2023-01-29T09:55:52;98047.53;;;8.60;47.86
56719;BME280;42597;40.636;0.278;2023-01-29T09:58:24;98056.16;;;8.80;50.83
56719;BME280;42597;40.636;0.278;2023-01-29T10:23:35;98066.97;;;7.31;48.16
56719;BME280;42597;40.636;0.278;2023-01-29T10:26:02;98076.44;;;8.24;48.59
56719;BME280;42597;40.636;0.278;2023-01-29T10:28:37;98064.63;;;6.88;48.07
56719;BME280;42597;40.636;0.278;2023-01-29T10:31:08;98068.53;;;7.82;50.22
56719;BME280;42597;40.636;0.278;2023-01-29T10:33:40;98072.78;;;7.11;47.55
56719;BME280;42597;40.636;0.278;2023-01-29T10:36:12;98064.66;;;7.88;49.28
56719;BME280;42597;40.636;0.278;2023-01-29T10:38:45;98074.06;;;7.27;48.24
56719;BME280;42597;40.636;0.278;2023-01-29T10:41:17;98071.94;;;7.38;46.92
56719;BME280;42597;40.636;0.278;2023-01-29T10:47:04;98074.44;;;7.84;48.29
56719;BME280;42597;40.636;0.278;2023-01-29T10:49:43;98080.59;;;7.85;48.31
56719;BME280;42597;40.636;0.278;2023-01-29T11:00:46;98079.19;;;7.87;49.06
56719;BME280;42597;40.636;0.278;2023-01-29T11:05:54;98076.03;;;8.93;47.42
56719;BME280;42597;40.636;0.278;2023-01-29T11:08:22;98061.28;;;8.90;48.80
56719;BME280;42597;40.636;0.278;2023-01-29T11:11:11;98062.75;;;9.05;51.01
56719;BME280;42597;40.636;0.278;2023-01-29T11:13:46;98062.94;;;8.69;46.87
56719;BME280;42597;40.636;0.278;2023-01-29T11:16:13;98049.47;;;8.69;49.81
56719;BME280;42597;40.636;0.278;2023-01-29T11:21:17;98047.16;;;8.45;45.43
56719;BME280;42597;40.636;0.278;2023-01-29T11:23:43;98054.00;;;8.28;44.76
56719;BME280;42597;40.636;0.278;2023-01-29T11:26:11;98054.34;;;8.35;44.95
56719;BME280;42597;40.636;0.278;2023-01-29T11:31:26;98037.84;;;9.08;48.78
56719;BME280;42597;40.636;0.278;2023-01-29T11:34:01;98042.09;;;8.92;49.28
56719;BME280;42597;40.636;0.278;2023-01-29T11:36:36;98046.53;;;8.87;49.27
56719;BME280;42597;40.636;0.278;2023-01-29T11:39:09;98033.53;;;8.89;49.05
56719;BME280;42597;40.636;0.278;2023-01-29T11:41:54;98037.59;;;8.16;44.96
56719;BME280;42597;40.636;0.278;2023-01-29T11:47:07;98037.84;;;8.28;45.71
56719;BME280;42597;40.636;0.278;2023-01-29T11:49:34;98029.78;;;8.06;44.43
56719;BME280;42597;40.636;0.278;2023-01-29T11:52:03;98035.13;;;8.51;46.48
56719;BME280;42597;40.636;0.278;2023-01-29T11:54:42;98041.88;;;8.39;47.35
56719;BME280;42597;40.636;0.278;2023-01-29T11:59:52;98023.78;;;9.28;49.56
56719;BME280;42597;40.636;0.278;2023-01-29T12:02:37;98022.00;;;8.58;43.92
56719;BME280;42597;40.636;0.278;2023-01-29T12:05:18;98011.88;;;8.32;45.23
56719;BME280;42597;40.636;0.278;2023-01-29T12:07:47;98009.19;;;8.32;45.43
56719;BME280;42597;40.636;0.278;2023-01-29T12:10:34;98009.19;;;8.32;46.91
56719;BME280;42597;40.636;0.278;2023-01-29T12:15:44;98009.19;;;8.32;44.66
56719;BME280;42597;40.636;0.278;2023-01-29T12:18:24;98003.91;;;8.98;48.56
56719;BME280;42597;40.636;0.278;2023-01-29T12:21:03;98003.13;;;8.49;46.41
56719;BME280;42597;40.636;0.278;2023-01-29T12:26:54;97996.03;;;8.31;44.49
56719;BME280;42597;40.636;0.278;2023-01-29T12:35:32;97989.03;;;8.21;47.91
56719;BME280;42597;40.636;0.278;2023-01-29T12:40:40;97991.75;;;8.61;49.08
56719;BME280;42597;40.636;0.278;2023-01-29T12:43:17;97991.66;;;8.83;48.34
56719;BME280;42597;40.636;0.278;2023-01-29T12:45:47;97985.22;;;8.45;45.64
56719;BME280;42597;40.636;0.278;2023-01-29T12:48:19;97990.84;;;8.74;44.36
56719;BME280;42597;40.636;0.278;2023-01-29T12:50:48;97982.00;;;8.91;49.42
56719;BME280;42597;40.636;0.278;2023-01-29T12:53:32;97991.53;;;8.88;46.02
56719;BME280;42597;40.636;0.278;2023-01-29T12:56:04;97993.69;;;8.07;45.03
56719;BME280;42597;40.636;0.278;2023-01-29T12:58:35;97994.00;;;8.36;46.48
56719;BME280;42597;40.636;0.278;2023-01-29T13:01:09;97994.13;;;8.62;45.57
56719;BME280;42597;40.636;0.278;2023-01-29T13:06:08;97985.56;;;9.09;48.55
56719;BME280;42597;40.636;0.278;2023-01-29T13:09:05;97986.81;;;8.23;43.91
56719;BME280;42597;40.636;0.278;2023-01-29T13:12:02;97975.56;;;8.21;44.06
56719;BME280;42597;40.636;0.278;2023-01-29T13:17:40;97979.69;;;8.27;46.37
56719;BME280;42597;40.636;0.278;2023-01-29T13:20:22;97972.81;;;8.44;44.65
56719;BME280;42597;40.636;0.278;2023-01-29T13:22:49;97973.81;;;8.16;44.29
56719;BME280;42597;40.636;0.278;2023-01-29T13:25:18;97964.19;;;7.93;43.46
56719;BME280;42597;40.636;0.278;2023-01-29T13:27:45;97964.97;;;7.94;44.32
56719;BME280;42597;40.636;0.278;2023-01-29T13:30:32;97956.06;;;8.47;45.26
56719;BME280;42597;40.636;0.278;2023-01-29T13:33:02;97958.34;;;8.71;47.21
56719;BME280;42597;40.636;0.278;2023-01-29T13:35:38;97955.34;;;8.32;43.43
56719;BME280;42597;40.636;0.278;2023-01-29T13:38:05;97961.44;;;8.47;42.50
56719;BME280;42597;40.636;0.278;2023-01-29T13:40:49;97960.09;;;8.35;44.92
56719;BME280;42597;40.636;0.278;2023-01-29T13:43:24;97952.91;;;8.45;43.06
56719;BME280;42597;40.636;0.278;2023-01-29T13:45:51;97944.53;;;8.24;43.27
56719;BME280;42597;40.636;0.278;2023-01-29T13:48:26;97951.00;;;8.54;44.97
56719;BME280;42597;40.636;0.278;2023-01-29T13:50:59;97951.81;;;8.63;43.63
56719;BME280;42597;40.636;0.278;2023-01-29T13:53:30;97951.19;;;8.26;42.67
56719;BME280;42597;40.636;0.278;2023-01-29T13:56:28;97952.44;;;8.20;43.44
56719;BME280;42597;40.636;0.278;2023-01-29T13:58:55;97954.31;;;8.20;43.71
56719;BME280;42597;40.636;0.278;2023-01-29T14:07:06;97953.66;;;8.94;43.40
56719;BME280;42597;40.636;0.278;2023-01-29T14:17:14;97954.72;;;8.35;43.87
56719;BME280;42597;40.636;0.278;2023-01-29T14:19:51;97952.78;;;8.27;43.68
56719;BME280;42597;40.636;0.278;2023-01-29T14:22:22;97953.94;;;8.04;44.26
56719;BME280;42597;40.636;0.278;2023-01-29T14:24:52;97961.53;;;8.02;44.15
56719;BME280;42597;40.636;0.278;2023-01-29T14:27:21;97958.84;;;8.02;44.14
56719;BME280;42597;40.636;0.278;2023-01-29T14:29:50;97972.00;;;8.12;44.36
56719;BME280;42597;40.636;0.278;2023-01-29T14:32:22;97964.19;;;8.24;44.06
56719;BME280;42597;40.636;0.278;2023-01-29T14:35:15;97962.75;;;7.96;43.65
56719;BME280;42597;40.636;0.278;2023-01-29T14:37:51;97973.97;;;7.89;43.99
56719;BME280;42597;40.636;0.278;2023-01-29T14:40:19;97972.44;;;7.97;43.93
56719;BME280;42597;40.636;0.278;2023-01-29T14:42:54;97975.81;;;8.11;44.28
56719;BME280;42597;40.636;0.278;2023-01-29T14:45:30;97975.03;;;8.10;43.57
56719;BME280;42597;40.636;0.278;2023-01-29T14:47:57;97984.03;;;8.06;43.63
56719;BME280;42597;40.636;0.278;2023-01-29T14:58:02;97981.97;;;7.80;43.98
56719;BME280;42597;40.636;0.278;2023-01-29T15:00:37;97982.47;;;7.82;44.01
56719;BME280;42597;40.636;0.278;2023-01-29T15:03:15;97981.28;;;7.97;44.23
56719;BME280;42597;40.636;0.278;2023-01-29T15:05:43;97984.34;;;7.82;43.92
56719;BME280;42597;40.636;0.278;2023-01-29T15:08:20;97981.97;;;7.80;44.66
56719;BME280;42597;40.636;0.278;2023-01-29T15:10:56;97980.56;;;7.83;44.04
56719;BME280;42597;40.636;0.278;2023-01-29T15:16:26;97995.31;;;7.85;43.86
56719;BME280;42597;40.636;0.278;2023-01-29T15:18:56;97998.19;;;7.89;44.29
56719;BME280;42597;40.636;0.278;2023-01-29T15:21:30;98001.06;;;7.93;44.26
56719;BME280;42597;40.636;0.278;2023-01-29T15:24:04;97996.88;;;7.86;43.54
56719;BME280;42597;40.636;0.278;2023-01-29T15:26:30;98003.13;;;7.73;44.00
56719;BME280;42597;40.636;0.278;2023-01-29T15:28:58;97994.31;;;7.81;44.34
56719;BME280;42597;40.636;0.278;2023-01-29T15:31:25;97995.91;;;7.82;43.67
56719;BME280;42597;40.636;0.278;2023-01-29T15:33:53;97994.56;;;7.71;44.47
56719;BME280;42597;40.636;0.278;2023-01-29T15:36:23;97993.97;;;7.74;44.44
56719;BME280;42597;40.636;0.278;2023-01-29T15:39:25;98001.09;;;7.79;44.36
56719;BME280;42597;40.636;0.278;2023-01-29T15:42:13;98005.31;;;7.71;44.58